Etusivu
METAR-TAF:

METAR-TAF

Lentoasemat :

Örebron lentoasema

Örebro, Ruotsi

Leveyspiiri: 59-14N, Pituuspiiri: 015-03E, korkeus merenpinnasta: 57 m

Tämänhetkinen sää

Tämä raportti tehtiin 31 minuuttia sitten, kello 23.50 UTC
Tuuli 3 kn eri suunnista
Lämpötila -1°C
Kosteus 100%
Ilmanpaine 1034 hPa
Näkyvyys 10 km tai enemmän

METAR: ESOE 202350Z AUTO VRB03KT 9999 OVC009/// M01/M01 Q1034

Aika: 01:21 (00:21 UTC)

Sääennuste

Tämä raportti tehtiin 3 tuntia ja 51 minuuttia sitten, kello 20.30 UTC
Ennuste voimassa 20. päivästä klo 21 UTC - 20. päivään klo 24 UTC
Tuuli 5 kn koillisesta
Näkyvyys 10 km tai enemmän
Hajonneita pilviä 1200 ft:n korkeudessa
Ajoittain
20. päivästä klo 21 UTC - 20. päivään klo 24 UTC
Hajanaisia pilviä 1500 ft:n korkeudessa

TAF: ESOE 202030Z 2021/2024 04005KT 9999 BKN012 TEMPO 2021/2024 SCT015

Säähavainnot ja -ennusteet yli 4000 lentoasemalta (METAR- ja TAF-raportit).

Käytössä olevat sääasemat on merkitty karttaan keltaisilla ja punaisilla pisteillä.

Aseta hiiri pisteen päälle nähdäksesi sääaseman nimen.

Klikkaa sitten nähdäksesi säähavainnot ja -ennusteet.

Kartan vaihtaminen: klikkaa mustalla rastilla varustettuja vihreitä pisteitä, niin voit zoomata sisään; viivalla varustettua vihreää pistettä, niin voit zoomata ulos tai vihreitä nuolia, niin pääset viereisille kartoille.


METAR-TAF: